sensor_id;sensor_type;location;lat;lon;timestamp;P1;durP1;ratioP1;P2;durP2;ratioP2
53545;SDS011;39432;51.902;10.844;2023-06-04T00:00:56;2.72;;;1.65;;
53545;SDS011;39432;51.902;10.844;2023-06-04T00:03:27;4.47;;;1.60;;
53545;SDS011;39432;51.902;10.844;2023-06-04T00:05:59;6.93;;;1.70;;
53545;SDS011;39432;51.902;10.844;2023-06-04T00:08:29;4.40;;;1.52;;
53545;SDS011;39432;51.902;10.844;2023-06-04T00:10:59;3.80;;;1.85;;
53545;SDS011;39432;51.902;10.844;2023-06-04T00:13:28;3.13;;;1.75;;
53545;SDS011;39432;51.902;10.844;2023-06-04T00:15:58;3.80;;;1.98;;
53545;SDS011;39432;51.902;10.844;2023-06-04T00:18:28;5.20;;;2.00;;
53545;SDS011;39432;51.902;10.844;2023-06-04T00:21:01;5.38;;;2.33;;
53545;SDS011;39432;51.902;10.844;2023-06-04T00:23:31;4.75;;;2.10;;
53545;SDS011;39432;51.902;10.844;2023-06-04T00:26:02;4.07;;;1.90;;
53545;SDS011;39432;51.902;10.844;2023-06-04T00:28:33;5.72;;;1.98;;
53545;SDS011;39432;51.902;10.844;2023-06-04T00:31:04;3.83;;;2.05;;
53545;SDS011;39432;51.902;10.844;2023-06-04T00:33:35;6.95;;;1.95;;
53545;SDS011;39432;51.902;10.844;2023-06-04T00:36:08;4.45;;;1.90;;
53545;SDS011;39432;51.902;10.844;2023-06-04T00:38:37;5.40;;;2.00;;
53545;SDS011;39432;51.902;10.844;2023-06-04T00:41:07;3.33;;;1.65;;
53545;SDS011;39432;51.902;10.844;2023-06-04T00:43:37;4.00;;;1.60;;
53545;SDS011;39432;51.902;10.844;2023-06-04T00:46:07;4.82;;;1.85;;
53545;SDS011;39432;51.902;10.844;2023-06-04T00:48:45;3.63;;;2.03;;
53545;SDS011;39432;51.902;10.844;2023-06-04T00:51:17;4.53;;;2.08;;
53545;SDS011;39432;51.902;10.844;2023-06-04T00:53:48;7.13;;;2.13;;
53545;SDS011;39432;51.902;10.844;2023-06-04T00:56:18;4.43;;;1.98;;
53545;SDS011;39432;51.902;10.844;2023-06-04T00:58:48;3.53;;;2.17;;
53545;SDS011;39432;51.902;10.844;2023-06-04T01:01:20;5.47;;;1.83;;
53545;SDS011;39432;51.902;10.844;2023-06-04T01:03:56;6.38;;;2.30;;
53545;SDS011;39432;51.902;10.844;2023-06-04T01:06:34;3.05;;;1.73;;
53545;SDS011;39432;51.902;10.844;2023-06-04T01:09:07;4.65;;;1.65;;
53545;SDS011;39432;51.902;10.844;2023-06-04T01:11:38;12.00;;;1.92;;
53545;SDS011;39432;51.902;10.844;2023-06-04T01:14:09;4.07;;;1.63;;
53545;SDS011;39432;51.902;10.844;2023-06-04T01:16:39;10.02;;;1.90;;
53545;SDS011;39432;51.902;10.844;2023-06-04T01:19:26;5.30;;;1.65;;
53545;SDS011;39432;51.902;10.844;2023-06-04T01:22:23;5.78;;;1.80;;
53545;SDS011;39432;51.902;10.844;2023-06-04T01:25:02;3.03;;;1.48;;
53545;SDS011;39432;51.902;10.844;2023-06-04T01:27:34;6.13;;;1.60;;
53545;SDS011;39432;51.902;10.844;2023-06-04T01:30:07;4.57;;;1.88;;
53545;SDS011;39432;51.902;10.844;2023-06-04T01:32:38;3.38;;;1.80;;
53545;SDS011;39432;51.902;10.844;2023-06-04T01:35:09;3.97;;;1.30;;
53545;SDS011;39432;51.902;10.844;2023-06-04T01:37:43;3.05;;;1.33;;
53545;SDS011;39432;51.902;10.844;2023-06-04T01:40:14;4.80;;;1.80;;
53545;SDS011;39432;51.902;10.844;2023-06-04T01:42:44;2.75;;;1.25;;
53545;SDS011;39432;51.902;10.844;2023-06-04T01:45:14;4.47;;;1.45;;
53545;SDS011;39432;51.902;10.844;2023-06-04T01:47:44;3.50;;;1.83;;
53545;SDS011;39432;51.902;10.844;2023-06-04T01:50:13;3.15;;;1.30;;
53545;SDS011;39432;51.902;10.844;2023-06-04T01:52:46;3.00;;;1.55;;
53545;SDS011;39432;51.902;10.844;2023-06-04T01:55:16;6.78;;;1.70;;
53545;SDS011;39432;51.902;10.844;2023-06-04T01:57:46;6.35;;;2.20;;
53545;SDS011;39432;51.902;10.844;2023-06-04T02:00:17;3.15;;;1.80;;
53545;SDS011;39432;51.902;10.844;2023-06-04T02:02:47;5.70;;;1.90;;
53545;SDS011;39432;51.902;10.844;2023-06-04T02:05:17;4.15;;;1.60;;
53545;SDS011;39432;51.902;10.844;2023-06-04T02:07:49;3.80;;;1.38;;
53545;SDS011;39432;51.902;10.844;2023-06-04T02:10:19;5.57;;;1.50;;
53545;SDS011;39432;51.902;10.844;2023-06-04T02:12:53;5.85;;;1.50;;
53545;SDS011;39432;51.902;10.844;2023-06-04T02:15:25;3.85;;;1.50;;
53545;SDS011;39432;51.902;10.844;2023-06-04T02:17:57;4.03;;;1.58;;
53545;SDS011;39432;51.902;10.844;2023-06-04T02:20:29;5.68;;;1.60;;
53545;SDS011;39432;51.902;10.844;2023-06-04T02:23:01;5.53;;;1.60;;
53545;SDS011;39432;51.902;10.844;2023-06-04T02:25:31;4.78;;;1.35;;
53545;SDS011;39432;51.902;10.844;2023-06-04T02:28:01;3.08;;;1.52;;
53545;SDS011;39432;51.902;10.844;2023-06-04T02:30:31;3.55;;;1.30;;
53545;SDS011;39432;51.902;10.844;2023-06-04T02:33:01;3.35;;;1.52;;
53545;SDS011;39432;51.902;10.844;2023-06-04T02:35:31;3.20;;;1.50;;
53545;SDS011;39432;51.902;10.844;2023-06-04T02:38:03;5.72;;;1.75;;
53545;SDS011;39432;51.902;10.844;2023-06-04T02:40:33;3.00;;;1.27;;
53545;SDS011;39432;51.902;10.844;2023-06-04T02:43:03;5.60;;;1.50;;
53545;SDS011;39432;51.902;10.844;2023-06-04T02:45:33;4.53;;;1.50;;
53545;SDS011;39432;51.902;10.844;2023-06-04T02:48:03;2.35;;;1.40;;
53545;SDS011;39432;51.902;10.844;2023-06-04T02:50:33;4.45;;;2.30;;
53545;SDS011;39432;51.902;10.844;2023-06-04T02:53:05;3.50;;;1.63;;
53545;SDS011;39432;51.902;10.844;2023-06-04T02:55:35;7.35;;;1.55;;
53545;SDS011;39432;51.902;10.844;2023-06-04T02:58:05;3.22;;;1.63;;
53545;SDS011;39432;51.902;10.844;2023-06-04T03:00:35;3.85;;;1.80;;
53545;SDS011;39432;51.902;10.844;2023-06-04T03:03:05;2.70;;;1.50;;
53545;SDS011;39432;51.902;10.844;2023-06-04T03:05:35;3.35;;;1.35;;
53545;SDS011;39432;51.902;10.844;2023-06-04T03:08:08;3.65;;;1.70;;
53545;SDS011;39432;51.902;10.844;2023-06-04T03:10:38;4.18;;;1.77;;
53545;SDS011;39432;51.902;10.844;2023-06-04T03:13:08;3.60;;;1.70;;
53545;SDS011;39432;51.902;10.844;2023-06-04T03:15:38;3.33;;;1.48;;
53545;SDS011;39432;51.902;10.844;2023-06-04T03:18:08;5.03;;;1.60;;
53545;SDS011;39432;51.902;10.844;2023-06-04T03:20:38;4.35;;;1.40;;
53545;SDS011;39432;51.902;10.844;2023-06-04T03:23:10;4.70;;;1.55;;
53545;SDS011;39432;51.902;10.844;2023-06-04T03:25:40;7.20;;;1.95;;
53545;SDS011;39432;51.902;10.844;2023-06-04T03:28:10;3.78;;;1.60;;
53545;SDS011;39432;51.902;10.844;2023-06-04T03:30:41;2.97;;;1.73;;
53545;SDS011;39432;51.902;10.844;2023-06-04T03:33:10;6.30;;;1.95;;
53545;SDS011;39432;51.902;10.844;2023-06-04T03:35:40;4.18;;;1.85;;
53545;SDS011;39432;51.902;10.844;2023-06-04T03:38:13;3.08;;;1.45;;
53545;SDS011;39432;51.902;10.844;2023-06-04T03:40:43;3.38;;;1.63;;
53545;SDS011;39432;51.902;10.844;2023-06-04T03:43:13;3.83;;;1.70;;
53545;SDS011;39432;51.902;10.844;2023-06-04T03:45:43;2.92;;;1.30;;
53545;SDS011;39432;51.902;10.844;2023-06-04T03:48:13;3.03;;;1.45;;
53545;SDS011;39432;51.902;10.844;2023-06-04T03:50:44;3.05;;;1.45;;
53545;SDS011;39432;51.902;10.844;2023-06-04T03:53:17;3.28;;;1.50;;
53545;SDS011;39432;51.902;10.844;2023-06-04T03:55:47;5.10;;;1.70;;
53545;SDS011;39432;51.902;10.844;2023-06-04T03:58:17;5.38;;;1.60;;
53545;SDS011;39432;51.902;10.844;2023-06-04T04:00:49;5.30;;;1.60;;
53545;SDS011;39432;51.902;10.844;2023-06-04T04:03:19;4.97;;;1.60;;
53545;SDS011;39432;51.902;10.844;2023-06-04T04:05:50;4.15;;;1.40;;
53545;SDS011;39432;51.902;10.844;2023-06-04T04:08:22;3.90;;;1.70;;
53545;SDS011;39432;51.902;10.844;2023-06-04T04:10:53;3.67;;;1.48;;
53545;SDS011;39432;51.902;10.844;2023-06-04T04:13:23;2.83;;;1.45;;
53545;SDS011;39432;51.902;10.844;2023-06-04T04:15:53;3.03;;;1.30;;
53545;SDS011;39432;51.902;10.844;2023-06-04T04:18:23;2.25;;;1.35;;
53545;SDS011;39432;51.902;10.844;2023-06-04T04:20:53;3.80;;;1.40;;
53545;SDS011;39432;51.902;10.844;2023-06-04T04:23:25;5.53;;;1.60;;
53545;SDS011;39432;51.902;10.844;2023-06-04T04:25:57;2.55;;;1.30;;
53545;SDS011;39432;51.902;10.844;2023-06-04T04:28:29;2.40;;;1.38;;
53545;SDS011;39432;51.902;10.844;2023-06-04T04:30:59;4.30;;;1.38;;
53545;SDS011;39432;51.902;10.844;2023-06-04T04:33:33;2.63;;;1.55;;
53545;SDS011;39432;51.902;10.844;2023-06-04T04:38:46;2.60;;;1.52;;
53545;SDS011;39432;51.902;10.844;2023-06-04T04:41:26;5.80;;;1.80;;
53545;SDS011;39432;51.902;10.844;2023-06-04T04:44:02;4.50;;;1.67;;
53545;SDS011;39432;51.902;10.844;2023-06-04T04:46:32;4.57;;;1.67;;
53545;SDS011;39432;51.902;10.844;2023-06-04T04:49:02;3.15;;;1.73;;
53545;SDS011;39432;51.902;10.844;2023-06-04T04:51:32;4.32;;;1.60;;
53545;SDS011;39432;51.902;10.844;2023-06-04T04:54:05;4.70;;;1.90;;
53545;SDS011;39432;51.902;10.844;2023-06-04T04:56:35;6.75;;;3.35;;
53545;SDS011;39432;51.902;10.844;2023-06-04T04:59:05;6.30;;;1.80;;
53545;SDS011;39432;51.902;10.844;2023-06-04T05:01:35;3.45;;;1.45;;
53545;SDS011;39432;51.902;10.844;2023-06-04T05:04:05;2.97;;;1.63;;
53545;SDS011;39432;51.902;10.844;2023-06-04T05:06:40;6.40;;;1.90;;
53545;SDS011;39432;51.902;10.844;2023-06-04T05:09:12;7.75;;;1.58;;
53545;SDS011;39432;51.902;10.844;2023-06-04T05:11:43;2.67;;;1.60;;
53545;SDS011;39432;51.902;10.844;2023-06-04T05:14:13;2.40;;;1.35;;
53545;SDS011;39432;51.902;10.844;2023-06-04T05:16:44;3.95;;;1.63;;
53545;SDS011;39432;51.902;10.844;2023-06-04T05:19:16;3.00;;;1.60;;
53545;SDS011;39432;51.902;10.844;2023-06-04T05:21:46;3.00;;;1.70;;
53545;SDS011;39432;51.902;10.844;2023-06-04T05:24:19;3.10;;;1.65;;
53545;SDS011;39432;51.902;10.844;2023-06-04T05:26:49;3.05;;;1.65;;
53545;SDS011;39432;51.902;10.844;2023-06-04T05:29:20;3.50;;;1.58;;
53545;SDS011;39432;51.902;10.844;2023-06-04T05:31:51;4.28;;;1.52;;
53545;SDS011;39432;51.902;10.844;2023-06-04T05:34:22;3.47;;;1.55;;
53545;SDS011;39432;51.902;10.844;2023-06-04T05:36:54;3.90;;;1.90;;
53545;SDS011;39432;51.902;10.844;2023-06-04T05:39:28;3.45;;;1.60;;
53545;SDS011;39432;51.902;10.844;2023-06-04T05:42:04;3.88;;;1.58;;
53545;SDS011;39432;51.902;10.844;2023-06-04T05:44:36;3.20;;;1.70;;
53545;SDS011;39432;51.902;10.844;2023-06-04T05:47:08;4.07;;;2.00;;
53545;SDS011;39432;51.902;10.844;2023-06-04T05:49:37;4.00;;;1.48;;
53545;SDS011;39432;51.902;10.844;2023-06-04T05:52:08;3.10;;;1.70;;
53545;SDS011;39432;51.902;10.844;2023-06-04T05:54:42;3.33;;;1.73;;
53545;SDS011;39432;51.902;10.844;2023-06-04T05:57:12;4.38;;;2.10;;
53545;SDS011;39432;51.902;10.844;2023-06-04T05:59:42;3.55;;;1.83;;
53545;SDS011;39432;51.902;10.844;2023-06-04T06:02:15;4.03;;;1.85;;
53545;SDS011;39432;51.902;10.844;2023-06-04T06:04:44;5.43;;;2.22;;
53545;SDS011;39432;51.902;10.844;2023-06-04T06:07:14;3.22;;;1.70;;
53545;SDS011;39432;51.902;10.844;2023-06-04T06:09:48;6.40;;;2.00;;
53545;SDS011;39432;51.902;10.844;2023-06-04T06:12:19;4.63;;;2.20;;
53545;SDS011;39432;51.902;10.844;2023-06-04T06:14:49;4.30;;;1.90;;
53545;SDS011;39432;51.902;10.844;2023-06-04T06:17:18;5.10;;;1.90;;
53545;SDS011;39432;51.902;10.844;2023-06-04T06:19:48;3.50;;;1.92;;
53545;SDS011;39432;51.902;10.844;2023-06-04T06:22:19;3.15;;;1.92;;
53545;SDS011;39432;51.902;10.844;2023-06-04T06:24:52;4.72;;;1.70;;
53545;SDS011;39432;51.902;10.844;2023-06-04T06:27:22;6.88;;;1.90;;
53545;SDS011;39432;51.902;10.844;2023-06-04T06:29:52;4.32;;;1.90;;
53545;SDS011;39432;51.902;10.844;2023-06-04T06:32:22;4.55;;;2.10;;
53545;SDS011;39432;51.902;10.844;2023-06-04T06:34:52;2.95;;;1.83;;
53545;SDS011;39432;51.902;10.844;2023-06-04T06:37:22;3.47;;;1.90;;
53545;SDS011;39432;51.902;10.844;2023-06-04T06:39:54;4.00;;;2.20;;
53545;SDS011;39432;51.902;10.844;2023-06-04T06:42:24;5.72;;;2.28;;
53545;SDS011;39432;51.902;10.844;2023-06-04T06:44:55;3.92;;;2.03;;
53545;SDS011;39432;51.902;10.844;2023-06-04T06:47:25;4.53;;;2.30;;
53545;SDS011;39432;51.902;10.844;2023-06-04T06:49:55;3.40;;;1.83;;
53545;SDS011;39432;51.902;10.844;2023-06-04T06:52:24;4.72;;;2.20;;
53545;SDS011;39432;51.902;10.844;2023-06-04T06:54:57;8.02;;;2.20;;
53545;SDS011;39432;51.902;10.844;2023-06-04T06:57:27;4.88;;;2.10;;
53545;SDS011;39432;51.902;10.844;2023-06-04T06:59:56;3.90;;;2.08;;
53545;SDS011;39432;51.902;10.844;2023-06-04T07:02:26;4.28;;;2.28;;
53545;SDS011;39432;51.902;10.844;2023-06-04T07:04:56;4.25;;;2.08;;
53545;SDS011;39432;51.902;10.844;2023-06-04T07:07:26;7.65;;;2.33;;
53545;SDS011;39432;51.902;10.844;2023-06-04T07:09:58;4.63;;;1.95;;
53545;SDS011;39432;51.902;10.844;2023-06-04T07:12:30;4.82;;;2.05;;
53545;SDS011;39432;51.902;10.844;2023-06-04T07:15:00;4.80;;;1.73;;
53545;SDS011;39432;51.902;10.844;2023-06-04T07:17:30;4.20;;;1.70;;
53545;SDS011;39432;51.902;10.844;2023-06-04T07:19:59;3.05;;;1.50;;
53545;SDS011;39432;51.902;10.844;2023-06-04T07:22:30;7.65;;;1.70;;
53545;SDS011;39432;51.902;10.844;2023-06-04T07:25:03;2.65;;;1.42;;
53545;SDS011;39432;51.902;10.844;2023-06-04T07:27:33;3.00;;;1.67;;
53545;SDS011;39432;51.902;10.844;2023-06-04T07:30:04;3.95;;;1.80;;
53545;SDS011;39432;51.902;10.844;2023-06-04T07:32:35;3.55;;;1.60;;
53545;SDS011;39432;51.902;10.844;2023-06-04T07:35:06;4.93;;;1.77;;
53545;SDS011;39432;51.902;10.844;2023-06-04T07:37:36;2.78;;;1.52;;
53545;SDS011;39432;51.902;10.844;2023-06-04T07:40:09;5.25;;;1.48;;
53545;SDS011;39432;51.902;10.844;2023-06-04T07:42:40;2.47;;;1.80;;
53545;SDS011;39432;51.902;10.844;2023-06-04T07:45:11;3.17;;;1.70;;
53545;SDS011;39432;51.902;10.844;2023-06-04T07:47:41;4.72;;;1.48;;
53545;SDS011;39432;51.902;10.844;2023-06-04T07:50:11;3.20;;;1.50;;
53545;SDS011;39432;51.902;10.844;2023-06-04T07:52:41;3.30;;;1.60;;
53545;SDS011;39432;51.902;10.844;2023-06-04T07:55:14;4.10;;;1.48;;
53545;SDS011;39432;51.902;10.844;2023-06-04T07:57:44;2.60;;;1.10;;
53545;SDS011;39432;51.902;10.844;2023-06-04T08:00:14;4.22;;;1.20;;
53545;SDS011;39432;51.902;10.844;2023-06-04T08:02:44;1.77;;;1.10;;
53545;SDS011;39432;51.902;10.844;2023-06-04T08:05:15;3.22;;;1.38;;
53545;SDS011;39432;51.902;10.844;2023-06-04T08:07:45;5.93;;;1.35;;
53545;SDS011;39432;51.902;10.844;2023-06-04T08:10:18;4.88;;;0.98;;
53545;SDS011;39432;51.902;10.844;2023-06-04T08:12:48;1.90;;;0.82;;
53545;SDS011;39432;51.902;10.844;2023-06-04T08:15:17;2.78;;;1.00;;
53545;SDS011;39432;51.902;10.844;2023-06-04T08:18:07;4.93;;;1.33;;
53545;SDS011;39432;51.902;10.844;2023-06-04T08:20:44;1.75;;;0.90;;
53545;SDS011;39432;51.902;10.844;2023-06-04T08:23:28;1.90;;;0.90;;
53545;SDS011;39432;51.902;10.844;2023-06-04T08:26:21;4.75;;;1.48;;
53545;SDS011;39432;51.902;10.844;2023-06-04T08:29:01;5.43;;;1.13;;
53545;SDS011;39432;51.902;10.844;2023-06-04T08:31:36;2.20;;;0.90;;
53545;SDS011;39432;51.902;10.844;2023-06-04T08:34:26;1.65;;;0.90;;
53545;SDS011;39432;51.902;10.844;2023-06-04T08:36:56;1.55;;;0.80;;
53545;SDS011;39432;51.902;10.844;2023-06-04T08:39:25;2.13;;;0.80;;
53545;SDS011;39432;51.902;10.844;2023-06-04T08:41:59;1.52;;;0.82;;
53545;SDS011;39432;51.902;10.844;2023-06-04T08:44:31;1.42;;;0.73;;
53545;SDS011;39432;51.902;10.844;2023-06-04T08:47:02;4.47;;;1.00;;
53545;SDS011;39432;51.902;10.844;2023-06-04T08:49:35;2.58;;;0.80;;
53545;SDS011;39432;51.902;10.844;2023-06-04T08:52:06;1.90;;;0.80;;
53545;SDS011;39432;51.902;10.844;2023-06-04T08:54:36;1.75;;;0.90;;
53545;SDS011;39432;51.902;10.844;2023-06-04T08:57:09;2.35;;;0.80;;
53545;SDS011;39432;51.902;10.844;2023-06-04T08:59:40;2.85;;;1.00;;
53545;SDS011;39432;51.902;10.844;2023-06-04T09:02:10;3.53;;;0.88;;
53545;SDS011;39432;51.902;10.844;2023-06-04T09:04:40;1.83;;;0.88;;
53545;SDS011;39432;51.902;10.844;2023-06-04T09:07:11;2.10;;;1.50;;
53545;SDS011;39432;51.902;10.844;2023-06-04T09:09:42;1.92;;;0.90;;
53545;SDS011;39432;51.902;10.844;2023-06-04T09:12:38;4.45;;;1.08;;
53545;SDS011;39432;51.902;10.844;2023-06-04T09:15:12;1.45;;;0.85;;
53545;SDS011;39432;51.902;10.844;2023-06-04T09:17:42;3.42;;;0.90;;
53545;SDS011;39432;51.902;10.844;2023-06-04T09:20:18;2.35;;;1.17;;
53545;SDS011;39432;51.902;10.844;2023-06-04T09:22:48;2.20;;;1.00;;
53545;SDS011;39432;51.902;10.844;2023-06-04T09:25:19;2.05;;;0.90;;
53545;SDS011;39432;51.902;10.844;2023-06-04T09:27:54;3.45;;;1.00;;
53545;SDS011;39432;51.902;10.844;2023-06-04T09:30:26;3.22;;;0.85;;
53545;SDS011;39432;51.902;10.844;2023-06-04T09:33:05;2.75;;;0.93;;
53545;SDS011;39432;51.902;10.844;2023-06-04T09:35:35;3.45;;;0.93;;
53545;SDS011;39432;51.902;10.844;2023-06-04T09:38:05;2.35;;;0.80;;
53545;SDS011;39432;51.902;10.844;2023-06-04T09:40:35;1.85;;;0.73;;
53545;SDS011;39432;51.902;10.844;2023-06-04T09:43:09;4.25;;;1.10;;
53545;SDS011;39432;51.902;10.844;2023-06-04T09:45:40;2.25;;;0.90;;
53545;SDS011;39432;51.902;10.844;2023-06-04T09:48:10;1.88;;;0.93;;
53545;SDS011;39432;51.902;10.844;2023-06-04T09:50:49;3.00;;;0.82;;
53545;SDS011;39432;51.902;10.844;2023-06-04T09:53:19;1.58;;;0.80;;
53545;SDS011;39432;51.902;10.844;2023-06-04T09:55:56;4.00;;;0.90;;
53545;SDS011;39432;51.902;10.844;2023-06-04T09:58:33;2.50;;;1.00;;
53545;SDS011;39432;51.902;10.844;2023-06-04T10:01:04;5.47;;;0.90;;
53545;SDS011;39432;51.902;10.844;2023-06-04T10:03:36;1.85;;;0.95;;
53545;SDS011;39432;51.902;10.844;2023-06-04T10:06:06;2.03;;;1.02;;
53545;SDS011;39432;51.902;10.844;2023-06-04T10:08:36;1.40;;;0.90;;
53545;SDS011;39432;51.902;10.844;2023-06-04T10:11:11;5.47;;;1.20;;
53545;SDS011;39432;51.902;10.844;2023-06-04T10:13:47;2.17;;;1.00;;
53545;SDS011;39432;51.902;10.844;2023-06-04T10:16:20;3.53;;;0.90;;
53545;SDS011;39432;51.902;10.844;2023-06-04T10:19:00;1.52;;;0.63;;
53545;SDS011;39432;51.902;10.844;2023-06-04T10:21:30;4.32;;;0.98;;
53545;SDS011;39432;51.902;10.844;2023-06-04T10:24:02;1.90;;;0.80;;
53545;SDS011;39432;51.902;10.844;2023-06-04T10:26:33;2.05;;;0.88;;
53545;SDS011;39432;51.902;10.844;2023-06-04T10:29:06;2.17;;;1.05;;
53545;SDS011;39432;51.902;10.844;2023-06-04T10:31:36;2.17;;;0.80;;
53545;SDS011;39432;51.902;10.844;2023-06-04T10:34:08;1.67;;;0.80;;
53545;SDS011;39432;51.902;10.844;2023-06-04T10:36:42;4.20;;;1.00;;
53545;SDS011;39432;51.902;10.844;2023-06-04T10:39:12;2.70;;;0.95;;
53545;SDS011;39432;51.902;10.844;2023-06-04T10:41:42;2.42;;;0.80;;
53545;SDS011;39432;51.902;10.844;2023-06-04T10:44:15;3.97;;;1.10;;
53545;SDS011;39432;51.902;10.844;2023-06-04T10:46:45;3.58;;;1.00;;
53545;SDS011;39432;51.902;10.844;2023-06-04T10:49:25;5.00;;;0.80;;
53545;SDS011;39432;51.902;10.844;2023-06-04T10:51:55;2.03;;;0.75;;
53545;SDS011;39432;51.902;10.844;2023-06-04T10:54:29;0.95;;;0.60;;
53545;SDS011;39432;51.902;10.844;2023-06-04T10:57:09;1.30;;;0.80;;
53545;SDS011;39432;51.902;10.844;2023-06-04T10:59:42;3.58;;;0.88;;
53545;SDS011;39432;51.902;10.844;2023-06-04T11:02:23;1.98;;;0.98;;
53545;SDS011;39432;51.902;10.844;2023-06-04T11:04:59;2.45;;;1.00;;
53545;SDS011;39432;51.902;10.844;2023-06-04T11:07:42;2.78;;;1.00;;
53545;SDS011;39432;51.902;10.844;2023-06-04T11:10:12;1.42;;;0.75;;
53545;SDS011;39432;51.902;10.844;2023-06-04T11:12:43;2.20;;;0.98;;
53545;SDS011;39432;51.902;10.844;2023-06-04T11:15:16;1.90;;;0.90;;
53545;SDS011;39432;51.902;10.844;2023-06-04T11:17:49;1.67;;;0.98;;
53545;SDS011;39432;51.902;10.844;2023-06-04T11:20:21;2.33;;;0.98;;
53545;SDS011;39432;51.902;10.844;2023-06-04T11:22:52;3.50;;;0.98;;
53545;SDS011;39432;51.902;10.844;2023-06-04T11:25:23;3.58;;;0.73;;
53545;SDS011;39432;51.902;10.844;2023-06-04T11:27:55;2.60;;;1.00;;
53545;SDS011;39432;51.902;10.844;2023-06-04T11:30:27;1.30;;;0.80;;
53545;SDS011;39432;51.902;10.844;2023-06-04T11:33:01;2.78;;;0.80;;
53545;SDS011;39432;51.902;10.844;2023-06-04T11:35:39;1.90;;;0.90;;
53545;SDS011;39432;51.902;10.844;2023-06-04T11:38:09;3.33;;;0.98;;
53545;SDS011;39432;51.902;10.844;2023-06-04T11:40:39;25.25;;;1.40;;
53545;SDS011;39432;51.902;10.844;2023-06-04T11:43:11;3.63;;;0.80;;
53545;SDS011;39432;51.902;10.844;2023-06-04T11:45:44;1.75;;;0.95;;
53545;SDS011;39432;51.902;10.844;2023-06-04T11:48:14;3.53;;;0.73;;
53545;SDS011;39432;51.902;10.844;2023-06-04T11:50:44;1.20;;;0.70;;
53545;SDS011;39432;51.902;10.844;2023-06-04T11:53:15;1.65;;;0.88;;
53545;SDS011;39432;51.902;10.844;2023-06-04T11:55:46;1.92;;;0.73;;
53545;SDS011;39432;51.902;10.844;2023-06-04T11:58:16;1.45;;;0.70;;
53545;SDS011;39432;51.902;10.844;2023-06-04T12:00:49;2.85;;;0.80;;
53545;SDS011;39432;51.902;10.844;2023-06-04T12:03:19;1.85;;;0.68;;
53545;SDS011;39432;51.902;10.844;2023-06-04T12:05:49;1.20;;;0.90;;
53545;SDS011;39432;51.902;10.844;2023-06-04T12:08:18;2.85;;;0.90;;
53545;SDS011;39432;51.902;10.844;2023-06-04T12:10:48;1.67;;;0.80;;
53545;SDS011;39432;51.902;10.844;2023-06-04T12:13:18;1.92;;;0.63;;
53545;SDS011;39432;51.902;10.844;2023-06-04T12:15:53;1.85;;;0.88;;
53545;SDS011;39432;51.902;10.844;2023-06-04T12:18:23;5.20;;;1.20;;
53545;SDS011;39432;51.902;10.844;2023-06-04T12:20:53;2.17;;;0.80;;
53545;SDS011;39432;51.902;10.844;2023-06-04T12:23:23;2.53;;;0.93;;
53545;SDS011;39432;51.902;10.844;2023-06-04T12:25:53;1.50;;;0.90;;
53545;SDS011;39432;51.902;10.844;2023-06-04T12:28:23;1.42;;;0.75;;
53545;SDS011;39432;51.902;10.844;2023-06-04T12:30:55;1.77;;;0.75;;
53545;SDS011;39432;51.902;10.844;2023-06-04T12:33:25;3.85;;;0.90;;
53545;SDS011;39432;51.902;10.844;2023-06-04T12:35:55;5.97;;;0.80;;
53545;SDS011;39432;51.902;10.844;2023-06-04T12:38:25;3.00;;;0.90;;
53545;SDS011;39432;51.902;10.844;2023-06-04T12:40:54;3.30;;;0.80;;
53545;SDS011;39432;51.902;10.844;2023-06-04T12:43:24;2.67;;;1.08;;
53545;SDS011;39432;51.902;10.844;2023-06-04T12:45:57;1.77;;;0.95;;
53545;SDS011;39432;51.902;10.844;2023-06-04T12:48:26;2.90;;;0.95;;
53545;SDS011;39432;51.902;10.844;2023-06-04T12:50:56;0.80;;;0.57;;
53545;SDS011;39432;51.902;10.844;2023-06-04T12:53:26;4.22;;;0.80;;
53545;SDS011;39432;51.902;10.844;2023-06-04T12:55:57;1.30;;;0.60;;
53545;SDS011;39432;51.902;10.844;2023-06-04T12:58:27;1.50;;;0.80;;
53545;SDS011;39432;51.902;10.844;2023-06-04T13:01:00;1.40;;;0.80;;
53545;SDS011;39432;51.902;10.844;2023-06-04T13:03:30;1.67;;;0.70;;
53545;SDS011;39432;51.902;10.844;2023-06-04T13:06:00;3.42;;;0.80;;
53545;SDS011;39432;51.902;10.844;2023-06-04T13:08:30;5.97;;;0.90;;
53545;SDS011;39432;51.902;10.844;2023-06-04T13:11:00;3.78;;;0.90;;
53545;SDS011;39432;51.902;10.844;2023-06-04T13:13:31;3.33;;;1.15;;
53545;SDS011;39432;51.902;10.844;2023-06-04T13:16:04;3.55;;;0.80;;
53545;SDS011;39432;51.902;10.844;2023-06-04T13:18:34;4.72;;;0.88;;
53545;SDS011;39432;51.902;10.844;2023-06-04T13:21:03;1.73;;;0.80;;
53545;SDS011;39432;51.902;10.844;2023-06-04T13:23:34;3.17;;;1.10;;
53545;SDS011;39432;51.902;10.844;2023-06-04T13:26:15;2.05;;;0.82;;
53545;SDS011;39432;51.902;10.844;2023-06-04T13:28:46;1.55;;;0.70;;
53545;SDS011;39432;51.902;10.844;2023-06-04T13:31:18;1.58;;;0.80;;
53545;SDS011;39432;51.902;10.844;2023-06-04T13:33:48;1.83;;;0.77;;
53545;SDS011;39432;51.902;10.844;2023-06-04T13:36:18;8.13;;;1.02;;
53545;SDS011;39432;51.902;10.844;2023-06-04T13:38:47;1.60;;;0.75;;
53545;SDS011;39432;51.902;10.844;2023-06-04T13:41:19;2.30;;;1.00;;
53545;SDS011;39432;51.902;10.844;2023-06-04T13:43:49;3.25;;;0.82;;
53545;SDS011;39432;51.902;10.844;2023-06-04T13:46:22;3.63;;;0.90;;
53545;SDS011;39432;51.902;10.844;2023-06-04T13:48:52;5.20;;;0.82;;
53545;SDS011;39432;51.902;10.844;2023-06-04T13:51:21;1.55;;;0.70;;
53545;SDS011;39432;51.902;10.844;2023-06-04T13:53:51;2.40;;;0.80;;
53545;SDS011;39432;51.902;10.844;2023-06-04T13:56:21;2.35;;;0.80;;
53545;SDS011;39432;51.902;10.844;2023-06-04T13:58:51;1.00;;;0.60;;
53545;SDS011;39432;51.902;10.844;2023-06-04T14:01:24;2.47;;;0.90;;
53545;SDS011;39432;51.902;10.844;2023-06-04T14:03:54;2.10;;;1.00;;
53545;SDS011;39432;51.902;10.844;2023-06-04T14:06:25;1.92;;;0.95;;
53545;SDS011;39432;51.902;10.844;2023-06-04T14:08:55;1.73;;;0.75;;
53545;SDS011;39432;51.902;10.844;2023-06-04T14:11:25;3.90;;;0.95;;
53545;SDS011;39432;51.902;10.844;2023-06-04T14:13:54;1.63;;;0.90;;
53545;SDS011;39432;51.902;10.844;2023-06-04T14:16:27;1.27;;;0.70;;
53545;SDS011;39432;51.902;10.844;2023-06-04T14:18:56;1.10;;;0.80;;
53545;SDS011;39432;51.902;10.844;2023-06-04T14:21:26;1.42;;;0.70;;
53545;SDS011;39432;51.902;10.844;2023-06-04T14:23:56;2.47;;;1.00;;
53545;SDS011;39432;51.902;10.844;2023-06-04T14:26:26;1.00;;;0.60;;
53545;SDS011;39432;51.902;10.844;2023-06-04T14:28:56;1.02;;;0.60;;
53545;SDS011;39432;51.902;10.844;2023-06-04T14:31:28;7.78;;;1.00;;
53545;SDS011;39432;51.902;10.844;2023-06-04T14:33:58;1.45;;;0.70;;
53545;SDS011;39432;51.902;10.844;2023-06-04T14:36:28;1.98;;;0.90;;
53545;SDS011;39432;51.902;10.844;2023-06-04T14:38:59;3.08;;;0.88;;
53545;SDS011;39432;51.902;10.844;2023-06-04T14:41:29;3.15;;;1.15;;
53545;SDS011;39432;51.902;10.844;2023-06-04T14:43:59;1.98;;;0.88;;
53545;SDS011;39432;51.902;10.844;2023-06-04T14:46:32;4.03;;;1.10;;
53545;SDS011;39432;51.902;10.844;2023-06-04T14:49:02;1.83;;;0.85;;
53545;SDS011;39432;51.902;10.844;2023-06-04T14:51:31;4.40;;;0.82;;
53545;SDS011;39432;51.902;10.844;2023-06-04T14:54:01;2.13;;;0.93;;
53545;SDS011;39432;51.902;10.844;2023-06-04T14:56:31;1.60;;;0.80;;
53545;SDS011;39432;51.902;10.844;2023-06-04T14:59:01;1.75;;;0.88;;
53545;SDS011;39432;51.902;10.844;2023-06-04T15:01:38;3.03;;;0.90;;